Peaseville, Vermont
Current Conditions -  °F | °C
As of 6:55 PM on Friday 28 Nov 2014 (Local Time) from KRUT Reporting Station
Broken Clouds Broken Clouds  
Wind Chill: 12°   Ceiling: 4600
Heat Index: 21°   Visibility: 10mi
Dew Point: 10°   Wind: 8mph
Humidity: 63%   Direction: 280°W
Pressure: 30.14"   Gusts: NA
Location:  43.2811°N, 72.6352°W
Report Text: KRUT 282355Z 28007KT 10SM BKN046 M06/M12 A3014 RMK AO1 11030 21060 410201060 52017
Loading
Personal Weather Stations






























Interactive Weather Map New forecast layout! Learn more

10-Day Weather Forecast

Advertisements
Track Severe Weather on mobile